createdAt,value
2022-11-28T00:00:46.236Z,80.88
2022-11-28T00:07:29.079Z,80.51
2022-11-28T00:14:13.452Z,80.26
2022-11-28T00:20:56.390Z,79.82
2022-11-28T00:27:39.844Z,80.26
2022-11-28T00:34:23.191Z,81.71
2022-11-28T00:41:06.705Z,81.43
2022-11-28T00:47:49.789Z,81.64
2022-11-28T00:54:32.798Z,82.11
2022-11-28T01:01:15.654Z,81.80
2022-11-28T01:07:58.160Z,82.08
2022-11-28T01:14:41.606Z,82.47
2022-11-28T01:21:13.476Z,82.36
2022-11-28T01:27:56.501Z,82.30
2022-11-28T01:34:39.610Z,82.29
2022-11-28T01:41:25.574Z,82.31
2022-11-28T01:48:08.866Z,81.86
2022-11-28T01:54:52.023Z,82.04
2022-11-28T02:01:35.079Z,82.04
2022-11-28T02:08:18.533Z,81.94
2022-11-28T02:15:04.347Z,81.93
2022-11-28T02:21:56.544Z,82.12
2022-11-28T02:28:42.257Z,82.31
2022-11-28T02:35:38.380Z,81.47
2022-11-28T02:42:40.945Z,81.48
2022-11-28T02:49:30.682Z,81.55
2022-11-28T02:56:14.217Z,81.03
2022-11-28T03:02:37.966Z,80.35
2022-11-28T03:09:18.621Z,80.61
2022-11-28T03:16:02.043Z,81.13
2022-11-28T03:22:48.195Z,80.80
2022-11-28T03:28:54.444Z,80.81
2022-11-28T03:35:40.750Z,80.37
2022-11-28T03:42:36.417Z,80.64
2022-11-28T03:49:25.636Z,80.77
2022-11-28T03:56:21.234Z,80.84
2022-11-28T04:03:22.352Z,80.21
2022-11-28T04:10:05.459Z,80.57
2022-11-28T04:16:53.947Z,80.06
2022-11-28T04:23:27.266Z,79.84
2022-11-28T04:30:10.566Z,79.70
2022-11-28T04:36:53.936Z,80.15
2022-11-28T04:43:43.925Z,79.74
2022-11-28T04:50:26.379Z,79.53
2022-11-28T04:57:09.687Z,79.55
2022-11-28T05:04:00.064Z,79.27
2022-11-28T05:10:42.706Z,79.44
2022-11-28T05:17:06.684Z,79.56
2022-11-28T05:23:49.355Z,79.90
2022-11-28T05:30:32.710Z,79.70
2022-11-28T05:37:15.277Z,79.30
2022-11-28T05:43:58.503Z,79.39
2022-11-28T05:50:28.816Z,79.02
2022-11-28T05:57:14.118Z,78.91
2022-11-28T06:03:57.900Z,78.77
2022-11-28T06:10:40.857Z,78.74
2022-11-28T06:17:24.237Z,79.17
2022-11-28T06:24:07.321Z,79.36
2022-11-28T06:30:28.689Z,79.60
2022-11-28T06:36:03.430Z,80.24
2022-11-28T06:42:26.727Z,79.60
2022-11-28T06:47:52.411Z,79.34
2022-11-28T06:54:16.480Z,79.38
2022-11-28T07:01:01.449Z,79.07
2022-11-28T07:07:53.836Z,78.95
2022-11-28T07:14:38.060Z,78.80
2022-11-28T07:21:21.657Z,79.03
2022-11-28T07:28:05.969Z,78.76
2022-11-28T07:34:50.245Z,78.35
2022-11-28T07:41:33.412Z,78.10
2022-11-28T07:48:16.369Z,78.30
2022-11-28T07:54:59.748Z,78.15
2022-11-28T08:01:33.495Z,78.58
2022-11-28T08:07:56.473Z,77.91
2022-11-28T08:14:39.323Z,77.20
2022-11-28T08:21:02.015Z,76.16
2022-11-28T08:26:30.946Z,82.15
2022-11-28T08:31:54.681Z,98.05
2022-11-28T08:37:21.933Z,86.64
2022-11-28T08:43:44.476Z,80.09
2022-11-28T08:50:07.528Z,71.79
2022-11-28T08:55:49.123Z,65.09
2022-11-28T09:02:19.021Z,61.72
2022-11-28T09:08:22.478Z,61.62
2022-11-28T09:15:07.579Z,63.30
2022-11-28T09:21:56.111Z,64.25
2022-11-28T09:27:47.713Z,65.52
2022-11-28T09:33:31.817Z,66.46
2022-11-28T09:39:17.763Z,67.62
2022-11-28T09:45:00.777Z,68.02
2022-11-28T09:50:37.830Z,68.71
2022-11-28T09:56:14.998Z,69.30
2022-11-28T10:02:16.100Z,69.49
2022-11-28T10:20:40.913Z,69.64
2022-11-28T10:27:21.277Z,69.95
2022-11-28T10:34:23.632Z,69.63
2022-11-28T10:41:11.449Z,69.88
2022-11-28T10:47:57.172Z,68.98
2022-11-28T10:54:44.389Z,68.56
2022-11-28T11:01:28.721Z,69.06
2022-11-28T11:08:12.032Z,68.00
2022-11-28T11:15:01.355Z,67.95
2022-11-28T11:21:13.721Z,67.64
2022-11-28T11:27:48.172Z,67.45
2022-11-28T11:34:02.765Z,66.84
2022-11-28T11:40:11.490Z,66.48
2022-11-28T11:46:56.971Z,66.16
2022-11-28T11:53:43.176Z,65.96
2022-11-28T12:00:35.247Z,65.69
2022-11-28T12:07:18.458Z,65.67
2022-11-28T12:14:01.598Z,65.80
2022-11-28T12:20:00.857Z,65.47
2022-11-28T12:25:45.938Z,64.78
2022-11-28T12:32:15.064Z,64.99
2022-11-28T12:38:25.931Z,64.54
2022-11-28T12:44:17.861Z,64.41
2022-11-28T12:49:56.794Z,64.16
2022-11-28T12:55:47.892Z,64.26
2022-11-28T13:01:23.878Z,64.24
2022-11-28T13:07:21.756Z,63.80
2022-11-28T13:13:00.887Z,63.60
2022-11-28T13:18:47.823Z,64.09
2022-11-28T13:24:53.032Z,64.00
2022-11-28T13:30:37.869Z,64.19
2022-11-28T13:49:13.841Z,63.81
2022-11-28T13:54:47.403Z,64.01
2022-11-28T14:00:41.798Z,62.62
2022-11-28T14:06:17.853Z,62.11
2022-11-28T14:12:11.816Z,60.94
2022-11-28T14:17:54.906Z,60.98
2022-11-28T14:24:21.154Z,60.33
2022-11-28T14:30:20.985Z,61.03
2022-11-28T14:36:46.895Z,62.19
2022-11-28T14:48:40.977Z,64.13
2022-11-28T14:55:15.063Z,64.95
2022-11-28T15:01:38.459Z,65.85
2022-11-28T15:08:19.920Z,66.18
2022-11-28T15:15:11.528Z,66.48
2022-11-28T15:21:53.922Z,66.42
2022-11-28T15:28:17.148Z,66.99
2022-11-28T15:35:00.406Z,67.23
2022-11-28T15:41:43.051Z,67.76
2022-11-28T15:48:26.203Z,67.70
2022-11-28T15:55:18.537Z,68.05
2022-11-28T16:02:04.754Z,68.11
2022-11-28T16:08:48.289Z,68.71
2022-11-28T16:15:18.362Z,69.09
2022-11-28T16:22:00.849Z,69.68
2022-11-28T16:28:20.035Z,69.87
2022-11-28T16:35:03.263Z,70.14
2022-11-28T16:41:25.541Z,70.37
2022-11-28T16:47:52.685Z,71.26
2022-11-28T16:54:37.980Z,72.07
2022-11-28T17:01:21.377Z,72.43
2022-11-28T17:08:09.387Z,73.35
2022-11-28T17:14:57.823Z,73.46
2022-11-28T17:21:42.543Z,74.18
2022-11-28T17:28:37.704Z,74.58
2022-11-28T17:35:05.198Z,74.80
2022-11-28T17:41:07.194Z,75.07
2022-11-28T17:55:18.020Z,75.49
2022-11-28T18:02:02.472Z,75.27
2022-11-28T18:07:55.431Z,75.44
2022-11-28T18:14:22.429Z,76.08
2022-11-28T18:20:35.069Z,75.88
2022-11-28T18:26:35.011Z,75.94
2022-11-28T18:33:01.300Z,75.99
2022-11-28T18:39:44.803Z,76.22
2022-11-28T18:46:29.349Z,75.95
2022-11-28T18:52:54.630Z,76.03
2022-11-28T18:58:39.554Z,76.30
2022-11-28T19:04:59.071Z,76.43
2022-11-28T19:11:07.719Z,76.79
2022-11-28T19:16:56.419Z,76.79
2022-11-28T19:23:00.331Z,76.49
2022-11-28T19:29:11.728Z,76.22
2022-11-28T19:35:37.718Z,76.41
2022-11-28T19:41:36.087Z,76.25
2022-11-28T19:48:19.789Z,75.93
2022-11-28T19:55:02.248Z,75.89
2022-11-28T20:01:47.083Z,75.99
2022-11-28T20:08:30.326Z,75.80
2022-11-28T20:14:56.263Z,75.58
2022-11-28T20:21:03.567Z,75.62
2022-11-28T20:26:36.028Z,76.07
2022-11-28T20:32:20.095Z,75.82
2022-11-28T20:38:57.900Z,75.70
2022-11-28T20:45:48.591Z,75.76
2022-11-28T20:51:55.976Z,75.59
2022-11-28T20:58:04.008Z,75.94
2022-11-28T21:04:42.066Z,75.99
2022-11-28T21:10:07.011Z,75.86
2022-11-28T21:15:33.279Z,76.27
2022-11-28T21:20:58.252Z,76.11
2022-11-28T21:26:30.098Z,75.93
2022-11-28T21:32:59.020Z,76.01
2022-11-28T21:39:47.755Z,76.31
2022-11-28T21:45:46.088Z,76.05
2022-11-28T21:51:25.130Z,76.31
2022-11-28T21:56:57.138Z,76.21
2022-11-28T22:03:06.891Z,75.95
2022-11-28T22:08:48.073Z,75.72
2022-11-28T22:14:27.932Z,76.19
2022-11-28T22:20:11.777Z,76.37
2022-11-28T22:26:35.875Z,76.18
2022-11-28T22:33:18.065Z,76.06
2022-11-28T22:39:44.025Z,76.51
2022-11-28T22:46:05.804Z,76.62
2022-11-28T22:51:54.413Z,76.48
2022-11-28T22:57:57.966Z,76.72
2022-11-28T23:04:25.098Z,76.15
2022-11-28T23:10:47.618Z,76.47
2022-11-28T23:16:53.089Z,76.33
2022-11-28T23:22:25.028Z,76.22
2022-11-28T23:28:28.695Z,76.30
2022-11-28T23:35:07.266Z,76.44
2022-11-28T23:40:30.463Z,76.58
2022-11-28T23:46:36.445Z,76.63
2022-11-28T23:52:01.115Z,76.50
2022-11-28T23:57:44.892Z,76.69
